createdAt,value
2016-04-27T09:49:35.343Z,132
2016-04-27T09:51:16.911Z,228
2016-04-27T09:52:16.788Z,2768
2016-04-27T09:53:18.260Z,2276
2016-04-27T09:54:16.982Z,2304
2016-04-27T09:55:16.984Z,2276
2016-04-27T09:56:17.033Z,2136
2016-04-27T09:57:17.052Z,1576
2016-04-27T09:58:17.070Z,1268
2016-04-27T09:59:17.089Z,888
2016-04-27T10:00:17.060Z,620
2016-04-27T10:01:17.156Z,480
2016-04-27T10:02:17.222Z,376
2016-04-27T10:03:17.396Z,400
2016-04-27T10:04:17.227Z,480
2016-04-27T10:05:17.245Z,392
2016-04-27T10:06:17.264Z,368
2016-04-27T10:07:17.298Z,468
2016-04-27T10:08:17.113Z,412
2016-04-27T10:09:17.333Z,420
2016-04-27T10:10:17.384Z,384
2016-04-27T10:11:17.371Z,416
2016-04-27T10:12:17.404Z,404
2016-04-27T10:13:17.439Z,384
2016-04-27T10:14:17.472Z,544
2016-04-27T10:15:17.475Z,592
2016-04-27T10:16:17.524Z,744
2016-04-27T10:17:17.528Z,788
2016-04-27T10:18:17.577Z,984
2016-04-27T10:19:17.580Z,1092
2016-04-27T10:20:17.614Z,1248
2016-04-27T10:21:17.648Z,1600
2016-04-27T10:22:17.373Z,1820
2016-04-27T10:23:18.311Z,1904
2016-04-27T10:24:17.704Z,1952
2016-04-27T10:25:17.738Z,2012
2016-04-27T10:26:17.789Z,2064
2016-04-27T10:27:17.791Z,2124
2016-04-27T10:28:18.107Z,2200
2016-04-27T10:29:17.891Z,2284
2016-04-27T10:30:18.128Z,2396
2016-04-27T10:31:17.943Z,2544
2016-04-27T10:32:17.976Z,2740
2016-04-27T10:33:18.167Z,2944
2016-04-27T10:34:18.029Z,3084
2016-04-27T10:35:17.985Z,3488
2016-04-27T10:36:18.019Z,3992
2016-04-27T10:37:18.303Z,4340
2016-04-27T10:38:18.618Z,4624
2016-04-27T10:39:18.105Z,4816
2016-04-27T10:40:18.139Z,4932
2016-04-27T10:41:18.141Z,4972
2016-04-27T10:42:18.145Z,4980
2016-04-27T10:43:18.194Z,4936
2016-04-27T10:44:17.806Z,4796
2016-04-27T10:45:18.996Z,4516
2016-04-27T10:46:19.624Z,4108
2016-04-27T10:47:18.283Z,3856
2016-04-27T10:48:18.302Z,3952
2016-04-27T10:49:18.351Z,4200
2016-04-27T10:50:18.369Z,4484
2016-04-27T10:51:18.419Z,4712
2016-04-27T10:52:18.421Z,4848
2016-04-27T10:53:18.815Z,4932
2016-04-27T10:54:18.458Z,4984
2016-04-27T10:55:18.493Z,5036
2016-04-27T10:56:18.510Z,5088
2016-04-27T10:57:18.528Z,5020
2016-04-27T10:58:18.563Z,5076
2016-04-27T10:59:18.596Z,5156
2016-04-27T11:00:18.619Z,5024
2016-04-27T11:01:18.668Z,4756
2016-04-27T11:02:18.671Z,4552
2016-04-27T11:03:21.721Z,4368
2016-04-27T11:04:18.739Z,4004
2016-04-27T11:05:18.773Z,3424
2016-04-27T11:06:18.760Z,2688
2016-04-27T11:07:18.809Z,2712
2016-04-27T11:08:20.094Z,3816
2016-04-27T11:09:18.846Z,4728
2016-04-27T11:10:18.865Z,5412
2016-04-27T11:11:18.883Z,6280
2016-04-27T11:12:18.932Z,6864
2016-04-27T11:13:18.951Z,6632
2016-04-27T11:14:18.985Z,6688
2016-04-27T11:15:19.018Z,6248
2016-04-27T11:16:19.037Z,4840
2016-04-27T11:17:19.039Z,3836
2016-04-27T11:18:19.105Z,2700
2016-04-27T11:19:19.092Z,1708
2016-04-27T11:20:19.142Z,1044
2016-04-27T11:21:19.144Z,696
2016-04-27T11:22:19.162Z,564
2016-04-27T11:23:19.384Z,636
2016-04-27T11:24:19.214Z,1204
2016-04-27T11:25:19.248Z,1752
2016-04-27T11:26:19.267Z,2460
2016-04-27T11:27:19.285Z,2620
2016-04-27T11:28:19.350Z,3272
2016-04-27T11:29:19.369Z,4292
2016-04-27T11:30:19.387Z,4888
2016-04-27T11:31:19.390Z,5012
2016-04-27T11:32:19.455Z,4940
2016-04-27T11:33:19.473Z,4740
2016-04-27T11:34:19.475Z,4492
2016-04-27T11:35:19.525Z,4256
2016-04-27T11:36:19.528Z,3992
2016-04-27T11:37:19.563Z,3748
2016-04-27T11:38:20.128Z,3504
2016-04-27T11:39:19.630Z,3288
2016-04-27T11:40:19.648Z,3096
2016-04-27T11:41:19.682Z,2956
2016-04-27T11:42:19.685Z,2868
2016-04-27T11:43:19.719Z,2804
2016-04-27T11:44:19.737Z,2748
2016-04-27T11:45:19.615Z,2684
2016-04-27T11:46:19.789Z,2636
2016-04-27T11:47:19.823Z,2600
2016-04-27T11:48:19.873Z,2580
2016-04-27T11:49:19.903Z,2560
2016-04-27T11:50:19.966Z,2532
2016-04-27T11:51:20.076Z,2500
2016-04-27T11:52:20.093Z,2512
2016-04-27T11:53:20.093Z,2660
2016-04-27T11:54:20.233Z,2852
2016-04-27T11:55:20.299Z,3044
2016-04-27T11:56:20.334Z,3268
2016-04-27T11:57:20.367Z,3484
2016-04-27T11:58:20.402Z,3728
2016-04-27T11:59:20.430Z,4004
2016-04-27T12:00:20.470Z,4304
2016-04-27T12:01:20.525Z,4600
2016-04-27T12:02:20.533Z,4860
2016-04-27T12:03:20.557Z,5072
2016-04-27T12:04:20.611Z,5236
2016-04-27T12:05:20.616Z,5352
2016-04-27T12:06:20.684Z,5432
2016-04-27T12:07:20.672Z,5460
2016-04-27T12:08:22.849Z,5572
2016-04-27T12:09:22.259Z,5704
2016-04-27T12:10:20.763Z,5800
2016-04-27T12:11:20.783Z,5920
2016-04-27T12:12:20.817Z,6048
2016-04-27T12:13:20.836Z,6160
2016-04-27T12:14:24.246Z,6292
2016-04-27T12:15:20.890Z,6416
2016-04-27T12:16:20.955Z,6492
2016-04-27T12:17:20.974Z,6508
2016-04-27T12:18:20.992Z,6632
2016-04-27T12:19:20.994Z,6792
2016-04-27T12:20:21.014Z,6820
2016-04-27T12:21:21.032Z,6736
2016-04-27T12:22:21.080Z,6620
2016-04-27T12:23:21.521Z,6488
2016-04-27T12:24:21.134Z,6544
2016-04-27T12:25:21.136Z,6056
2016-04-27T12:26:21.186Z,5484
2016-04-27T12:27:21.188Z,5424
2016-04-27T12:28:21.222Z,5628
2016-04-27T12:29:21.256Z,5180
2016-04-27T12:30:21.290Z,4384
2016-04-27T12:31:21.309Z,3484
2016-04-27T12:32:21.327Z,4220
2016-04-27T12:33:21.376Z,3664
2016-04-27T12:34:21.379Z,2468
2016-04-27T12:35:21.445Z,1888
2016-04-27T12:36:21.447Z,1324
2016-04-27T12:37:21.465Z,1192
2016-04-27T12:38:24.249Z,1192
2016-04-27T12:39:21.518Z,1932
2016-04-27T12:40:21.552Z,2564
2016-04-27T12:41:21.414Z,2844
2016-04-27T12:42:20.854Z,2848
2016-04-27T12:43:21.606Z,2072
2016-04-27T12:44:21.640Z,2148
2016-04-27T12:45:21.675Z,2656
2016-04-27T12:46:21.911Z,3328
2016-04-27T12:47:21.727Z,3520
2016-04-27T12:48:21.745Z,3572
2016-04-27T12:49:21.778Z,3564
2016-04-27T12:50:21.797Z,3536
2016-04-27T12:51:21.847Z,3492
2016-04-27T12:52:21.849Z,3476
2016-04-27T12:53:23.555Z,3508
2016-04-27T12:54:22.011Z,3592
2016-04-27T12:55:21.935Z,3712
2016-04-27T12:56:21.954Z,3820
2016-04-27T12:57:22.004Z,3876
2016-04-27T12:58:22.001Z,3844
2016-04-27T12:59:22.035Z,3748
2016-04-27T13:00:22.068Z,3632
2016-04-27T13:01:22.086Z,3532
2016-04-27T13:02:21.355Z,3412
2016-04-27T13:03:22.154Z,3268
2016-04-27T13:04:22.157Z,3128
2016-04-27T13:05:22.176Z,3008
2016-04-27T13:06:22.209Z,2908
2016-04-27T13:07:22.102Z,2824
2016-04-27T13:08:24.199Z,2752
2016-04-27T13:09:22.311Z,2676
2016-04-27T13:10:22.314Z,2636
2016-04-27T13:11:22.192Z,2648
2016-04-27T13:12:22.367Z,2668
2016-04-27T13:13:22.416Z,2704
2016-04-27T13:14:22.419Z,2760
2016-04-27T13:15:22.453Z,2856
2016-04-27T13:16:22.471Z,3012
2016-04-27T13:17:22.489Z,3248
2016-04-27T13:18:22.539Z,3540
2016-04-27T13:19:21.808Z,3852
2016-04-27T13:20:22.575Z,4376
2016-04-27T13:21:22.610Z,4608
2016-04-27T13:22:22.627Z,4692
2016-04-27T13:23:23.083Z,4820
2016-04-27T13:24:22.711Z,4960
2016-04-27T13:25:22.713Z,5036
2016-04-27T13:26:22.732Z,5204
2016-04-27T13:27:22.782Z,5332
2016-04-27T13:28:22.785Z,5576
2016-04-27T13:29:22.802Z,5744
2016-04-27T13:30:22.837Z,5892
2016-04-27T13:31:22.854Z,5936
2016-04-27T13:32:22.889Z,6028
2016-04-27T13:33:22.907Z,5952
2016-04-27T13:34:22.956Z,5972
2016-04-27T13:35:22.975Z,5948
2016-04-27T13:36:22.993Z,5796
2016-04-27T13:37:23.028Z,5700
2016-04-27T13:38:22.764Z,5648
2016-04-27T13:39:25.033Z,5588
2016-04-27T13:40:23.114Z,5528
2016-04-27T13:41:23.131Z,5508
2016-04-27T13:42:23.151Z,5376
2016-04-27T13:43:23.184Z,5380
2016-04-27T13:44:23.203Z,5360
2016-04-27T13:45:23.236Z,5376
2016-04-27T13:46:23.238Z,5304
2016-04-27T13:47:23.289Z,5332
2016-04-27T13:48:23.338Z,5052
2016-04-27T13:49:23.324Z,4288
2016-04-27T13:50:23.344Z,3408
2016-04-27T13:51:23.377Z,3164
2016-04-27T13:52:23.443Z,3288
2016-04-27T13:53:23.492Z,3704
2016-04-27T13:54:23.651Z,3696
2016-04-27T13:55:23.497Z,3288
2016-04-27T13:56:23.500Z,2496
2016-04-27T13:57:23.550Z,2032
2016-04-27T13:58:23.568Z,1660
2016-04-27T13:59:23.602Z,1528
2016-04-27T14:00:23.620Z,1360
2016-04-27T14:01:23.513Z,1284
2016-04-27T14:02:23.656Z,1236
2016-04-27T14:03:23.706Z,1096
2016-04-27T14:04:23.726Z,956
2016-04-27T14:05:23.759Z,860
2016-04-27T14:06:23.761Z,820
2016-04-27T14:07:23.639Z,788
2016-04-27T14:08:23.954Z,788
2016-04-27T14:09:23.426Z,796
2016-04-27T14:10:23.881Z,796
2016-04-27T14:11:23.915Z,804
2016-04-27T14:12:23.950Z,852
2016-04-27T14:13:23.953Z,940
2016-04-27T14:14:23.986Z,1068
2016-04-27T14:15:24.005Z,1200
2016-04-27T14:16:24.053Z,1300
2016-04-27T14:17:24.051Z,1352
2016-04-27T14:18:24.106Z,1372
2016-04-27T14:19:24.110Z,1368
2016-04-27T14:20:24.145Z,1360
2016-04-27T14:21:24.162Z,1388
2016-04-27T14:22:24.258Z,1444
2016-04-27T14:23:28.703Z,1524
2016-04-27T14:24:24.441Z,1612
2016-04-27T14:25:24.271Z,1692
2016-04-27T14:26:24.322Z,1752
2016-04-27T14:27:24.324Z,1764
2016-04-27T14:28:24.358Z,1744
2016-04-27T14:29:24.361Z,1716
2016-04-27T14:30:24.410Z,1664
2016-04-27T14:31:24.413Z,1604
2016-04-27T14:32:24.446Z,1544
2016-04-27T14:33:24.480Z,1496
2016-04-27T14:34:24.515Z,1472
2016-04-27T14:35:24.517Z,1460
2016-04-27T14:36:24.567Z,1428
2016-04-27T14:37:24.569Z,1356
2016-04-27T14:38:24.838Z,1244
2016-04-27T14:39:24.496Z,1148
2016-04-27T14:40:24.656Z,1076
2016-04-27T14:41:24.673Z,1040
2016-04-27T14:42:24.708Z,1036
2016-04-27T14:43:24.757Z,1052
2016-04-27T14:44:24.745Z,1064
2016-04-27T14:45:24.779Z,1076
2016-04-27T14:46:24.812Z,1100
2016-04-27T14:47:24.846Z,1140
2016-04-27T14:48:24.865Z,1204
2016-04-27T14:49:24.883Z,1288
2016-04-27T14:50:24.917Z,1376
2016-04-27T14:51:24.920Z,1468
2016-04-27T14:52:24.985Z,1540
2016-04-27T14:53:25.394Z,1576
2016-04-27T14:54:24.724Z,1560
2016-04-27T14:55:25.087Z,1488
2016-04-27T14:56:25.074Z,1368
2016-04-27T14:57:25.092Z,1216
2016-04-27T14:58:25.626Z,1108
2016-04-27T14:59:25.144Z,1152
2016-04-27T15:00:25.163Z,1228
2016-04-27T15:01:25.180Z,1296
2016-04-27T15:02:25.230Z,1360
2016-04-27T15:03:25.264Z,1408
2016-04-27T15:04:25.283Z,1444
2016-04-27T15:05:25.301Z,1464
2016-04-27T15:06:25.335Z,1468
2016-04-27T15:07:25.354Z,1448
2016-04-27T15:08:29.652Z,1424
2016-04-27T15:09:26.234Z,1404
2016-04-27T15:10:25.439Z,1416
2016-04-27T15:11:25.442Z,1456
2016-04-27T15:12:25.492Z,1528
2016-04-27T15:13:25.510Z,1628
2016-04-27T15:14:25.528Z,1756
2016-04-27T15:15:25.562Z,1908
2016-04-27T15:16:25.581Z,2088
2016-04-27T15:17:25.599Z,2276
2016-04-27T15:18:25.648Z,2460
2016-04-27T15:19:25.651Z,2624
2016-04-27T15:20:25.701Z,2760
2016-04-27T15:21:25.719Z,2924
2016-04-27T15:22:25.770Z,3128
2016-04-27T15:23:25.757Z,3296
2016-04-27T15:24:25.525Z,3416
2016-04-27T15:25:26.043Z,3488
2016-04-27T15:26:25.842Z,3536
2016-04-27T15:27:25.112Z,3568
2016-04-27T15:28:25.880Z,3576
2016-04-27T15:29:25.929Z,3556
2016-04-27T15:30:25.931Z,3532
2016-04-27T15:31:26.247Z,3500
2016-04-27T15:32:26.000Z,3432
2016-04-27T15:33:25.283Z,3320
2016-04-27T15:34:26.020Z,3168
2016-04-27T15:35:26.070Z,3028
2016-04-27T15:36:26.089Z,2992
2016-04-27T15:37:26.122Z,3072
2016-04-27T15:38:26.156Z,3164
2016-04-27T15:39:26.565Z,3272
2016-04-27T15:40:26.193Z,3348
2016-04-27T15:41:26.242Z,3360
2016-04-27T15:42:26.245Z,3300
2016-04-27T15:43:26.263Z,3200
2016-04-27T15:44:26.297Z,3088
2016-04-27T15:45:26.332Z,2960
2016-04-27T15:46:26.334Z,2828
2016-04-27T15:47:26.383Z,2700
2016-04-27T15:48:26.433Z,2556
2016-04-27T15:49:26.421Z,2420
2016-04-27T15:50:25.705Z,2276
2016-04-27T15:51:26.473Z,2136
2016-04-27T15:52:26.491Z,2012
2016-04-27T15:53:26.556Z,1896
2016-04-27T15:54:26.559Z,1784
2016-04-27T15:55:26.592Z,1660
2016-04-27T15:56:26.612Z,1548
2016-04-27T15:57:26.630Z,1460
2016-04-27T15:58:26.648Z,1396
2016-04-27T15:59:26.681Z,1352
2016-04-27T16:00:26.715Z,1308
2016-04-27T16:01:26.734Z,1256
2016-04-27T16:02:26.753Z,1200
2016-04-27T16:03:26.787Z,1164
2016-04-27T16:04:26.804Z,1140
2016-04-27T16:05:26.839Z,1140
2016-04-27T16:06:26.841Z,1152
2016-04-27T16:07:26.891Z,1176
2016-04-27T16:08:26.909Z,1196
2016-04-27T16:09:27.396Z,1204
2016-04-27T16:10:26.961Z,1204
2016-04-27T16:11:26.995Z,1192
2016-04-27T16:12:26.858Z,1176
2016-04-27T16:13:27.047Z,1156
2016-04-27T16:14:27.066Z,1140
2016-04-27T16:15:27.083Z,1120
2016-04-27T16:16:27.118Z,1112
2016-04-27T16:17:27.152Z,1104
2016-04-27T16:18:27.186Z,1104
2016-04-27T16:19:27.204Z,1112
2016-04-27T16:20:27.222Z,1120
2016-04-27T16:21:27.241Z,1136
2016-04-27T16:22:27.274Z,1160
2016-04-27T16:23:27.309Z,1188
2016-04-27T16:24:27.326Z,1212
2016-04-27T16:25:27.346Z,1260
2016-04-27T16:26:27.396Z,1312
2016-04-27T16:27:27.398Z,1404
2016-04-27T16:28:27.416Z,1476
2016-04-27T16:29:27.450Z,1556
2016-04-27T16:30:27.468Z,1528
2016-04-27T16:31:27.502Z,1604
2016-04-27T16:32:27.551Z,1652
2016-04-27T16:33:27.570Z,1660
2016-04-27T16:34:27.589Z,1684
2016-04-27T16:35:27.607Z,1724
2016-04-27T16:36:27.672Z,1764
2016-04-27T16:37:27.643Z,1796
2016-04-27T16:38:27.693Z,1828
2016-04-27T16:39:28.195Z,1852
2016-04-27T16:40:27.730Z,1892
2016-04-27T16:41:27.764Z,1936
2016-04-27T16:42:27.797Z,1980
2016-04-27T16:43:27.800Z,2020
2016-04-27T16:44:27.850Z,2060
2016-04-27T16:45:27.868Z,2104
2016-04-27T16:46:27.887Z,2140
2016-04-27T16:47:27.920Z,2156
2016-04-27T16:48:27.955Z,2184
2016-04-27T16:49:27.957Z,2204
2016-04-27T16:50:27.975Z,2204
2016-04-27T16:51:28.024Z,2200
2016-04-27T16:52:28.027Z,2204
2016-04-27T16:53:28.061Z,2196
2016-04-27T16:54:28.096Z,2188
2016-04-27T16:55:28.113Z,2176
2016-04-27T16:56:28.148Z,2148
2016-04-27T16:57:28.182Z,2156
2016-04-27T16:58:28.215Z,2148
2016-04-27T16:59:27.468Z,2144
2016-04-27T17:00:28.251Z,2140
2016-04-27T17:01:28.271Z,2116
2016-04-27T17:02:28.335Z,2128
2016-04-27T17:03:28.323Z,2132
2016-04-27T17:04:28.340Z,2140
2016-04-27T17:05:28.359Z,2144
2016-04-27T17:06:28.393Z,2136
2016-04-27T17:07:28.427Z,2108
2016-04-27T17:08:28.476Z,2112
2016-04-27T17:09:29.308Z,2116
2016-04-27T17:10:28.497Z,2084
2016-04-27T17:11:28.532Z,1948
2016-04-27T17:12:28.550Z,1888
2016-04-27T17:13:28.569Z,1852
2016-04-27T17:14:28.603Z,1808
2016-04-27T17:15:28.636Z,1752
2016-04-27T17:16:28.655Z,1712
2016-04-27T17:17:28.673Z,1652
2016-04-27T17:18:28.707Z,1600
2016-04-27T17:19:28.741Z,1520
2016-04-27T17:20:28.758Z,1428
2016-04-27T17:21:28.777Z,1272
2016-04-27T17:22:28.796Z,1068
2016-04-27T17:23:28.829Z,932
2016-04-27T17:24:29.941Z,848
2016-04-27T17:25:28.897Z,772
2016-04-27T17:26:28.900Z,732
2016-04-27T17:27:28.949Z,752
2016-04-27T17:28:28.952Z,824
2016-04-27T17:29:28.987Z,948
2016-04-27T17:30:29.004Z,1104
2016-04-27T17:31:29.038Z,1264
2016-04-27T17:32:29.088Z,1436
2016-04-27T17:33:29.091Z,1624
2016-04-27T17:34:29.109Z,1812
2016-04-27T17:35:29.128Z,2096
2016-04-27T17:36:29.162Z,2324
2016-04-27T17:37:29.196Z,2408
2016-04-27T17:38:29.229Z,2484
2016-04-27T17:39:29.232Z,2400
2016-04-27T17:40:29.250Z,2240
2016-04-27T17:41:29.284Z,2016
2016-04-27T17:42:29.334Z,1808
2016-04-27T17:43:29.337Z,1628
2016-04-27T17:44:29.370Z,1480
2016-04-27T17:45:29.420Z,1364
2016-04-27T17:46:29.407Z,1272
2016-04-27T17:47:29.300Z,1212
2016-04-27T17:48:29.475Z,1152
2016-04-27T17:49:29.494Z,1132
2016-04-27T17:50:29.512Z,1160
2016-04-27T17:51:29.561Z,1276
2016-04-27T17:52:29.564Z,1224
2016-04-27T17:53:29.597Z,1132
2016-04-27T17:54:30.116Z,1120
2016-04-27T17:55:30.728Z,1068
2016-04-27T17:56:29.668Z,1028
2016-04-27T17:57:29.702Z,988
2016-04-27T17:58:29.736Z,944
2016-04-27T17:59:29.739Z,916
2016-04-27T18:00:29.788Z,868
2016-04-27T18:01:29.791Z,848
2016-04-27T18:02:29.825Z,792
2016-04-27T18:03:29.843Z,776
2016-04-27T18:04:29.862Z,740
2016-04-27T18:05:29.896Z,704
2016-04-27T18:06:29.930Z,680
2016-04-27T18:07:29.948Z,660
2016-04-27T18:08:29.998Z,628
2016-04-27T18:09:31.157Z,604
2016-04-27T18:10:30.066Z,588
2016-04-27T18:11:30.053Z,572
2016-04-27T18:12:30.086Z,540
2016-04-27T18:13:30.106Z,524
2016-04-27T18:14:30.139Z,500
2016-04-27T18:15:30.156Z,452
2016-04-27T18:16:30.192Z,424
2016-04-27T18:17:30.195Z,412
2016-04-27T18:18:30.243Z,408
2016-04-27T18:19:30.247Z,388
2016-04-27T18:20:30.280Z,376
2016-04-27T18:21:30.314Z,356
2016-04-27T18:22:30.347Z,352
2016-04-27T18:23:30.335Z,352
2016-04-27T18:24:32.244Z,344
2016-04-27T18:25:30.340Z,336
2016-04-27T18:26:30.452Z,324
2016-04-27T18:27:30.471Z,320
2016-04-27T18:28:30.505Z,312
2016-04-27T18:29:30.492Z,308
2016-04-27T18:30:30.557Z,300
2016-04-27T18:31:30.575Z,288
2016-04-27T18:32:30.610Z,280
2016-04-27T18:33:30.612Z,276
2016-04-27T18:34:30.646Z,264
2016-04-27T18:35:30.665Z,252
2016-04-27T18:36:30.682Z,236
2016-04-27T18:37:30.716Z,224
2016-04-27T18:38:30.734Z,212
2016-04-27T18:39:32.237Z,200
2016-04-27T18:40:31.287Z,184
2016-04-27T18:41:30.821Z,176
2016-04-27T18:42:30.855Z,168
2016-04-27T18:43:30.877Z,152
2016-04-27T18:44:30.911Z,144
2016-04-27T18:45:30.914Z,132
2016-04-27T18:46:30.947Z,116
2016-04-27T18:47:30.982Z,108
2016-04-27T18:48:30.985Z,100
2016-04-27T18:49:31.018Z,96
2016-04-27T18:50:31.037Z,84
2016-04-27T18:51:31.071Z,80
2016-04-27T18:52:31.105Z,68
2016-04-27T18:53:31.108Z,64
2016-04-27T18:54:30.985Z,60
2016-04-27T18:55:31.582Z,52
2016-04-27T18:56:31.193Z,48
2016-04-27T18:57:31.212Z,44
2016-04-27T18:58:31.074Z,40
2016-04-27T18:59:31.264Z,36
2016-04-27T19:00:31.282Z,32
2016-04-27T19:01:31.316Z,32
2016-04-27T19:02:31.350Z,28
2016-04-27T19:03:31.353Z,24
2016-04-27T19:04:31.403Z,20
2016-04-27T19:05:31.437Z,20
2016-04-27T19:06:31.455Z,16
2016-04-27T19:07:31.458Z,16
2016-04-27T19:08:31.492Z,12
2016-04-27T19:09:31.197Z,8
2016-04-27T19:10:31.903Z,8
2016-04-27T19:11:31.562Z,8
2016-04-27T19:12:31.580Z,8
2016-04-27T19:13:31.614Z,8
2016-04-27T19:14:31.633Z,4
2016-04-27T19:15:31.667Z,8
2016-04-27T19:16:31.685Z,4
2016-04-27T19:17:31.735Z,4
2016-04-27T19:18:31.721Z,0
2016-04-27T19:19:31.771Z,4
2016-04-27T19:20:31.774Z,4
2016-04-27T19:21:31.808Z,4
2016-04-27T19:22:31.818Z,0
2016-04-27T19:23:31.852Z,0
2016-04-27T19:24:31.932Z,0
2016-04-27T19:25:32.810Z,0
2016-04-27T19:26:31.923Z,0
2016-04-27T19:27:31.941Z,0
2016-04-27T19:28:31.959Z,0
2016-04-27T19:29:31.993Z,0
2016-04-27T19:30:32.011Z,0
2016-04-27T19:31:32.046Z,0
2016-04-27T19:32:32.079Z,0
2016-04-27T19:33:32.114Z,0
2016-04-27T19:34:32.100Z,0
2016-04-27T19:35:32.134Z,0
2016-04-27T19:36:32.152Z,0
2016-04-27T19:37:32.171Z,0
2016-04-27T19:38:32.205Z,0
2016-04-27T19:39:32.114Z,0
2016-04-27T19:40:31.382Z,0
2016-04-27T19:41:32.276Z,0
2016-04-27T19:42:32.294Z,0
2016-04-27T19:43:32.328Z,0
2016-04-27T19:44:32.346Z,0
2016-04-27T19:45:32.380Z,0
2016-04-27T19:46:32.413Z,0
2016-04-27T19:47:32.416Z,0
2016-04-27T19:48:32.435Z,0
2016-04-27T19:49:32.719Z,0
2016-04-27T19:50:32.503Z,0
2016-04-27T19:51:32.490Z,0
2016-04-27T19:52:32.555Z,0
2016-04-27T19:53:32.574Z,0
2016-04-27T19:54:32.420Z,0
2016-04-27T19:55:32.344Z,0
2016-04-27T19:56:32.660Z,0
2016-04-27T19:57:32.662Z,0
2016-04-27T19:58:32.665Z,0
2016-04-27T19:59:32.730Z,0
2016-04-27T20:00:32.717Z,0
2016-04-27T20:01:32.751Z,0
2016-04-27T20:02:32.785Z,0
2016-04-27T20:03:32.787Z,0
2016-04-27T20:04:32.822Z,0
2016-04-27T20:05:32.887Z,0
2016-04-27T20:06:32.858Z,0
2016-04-27T20:07:32.892Z,0
2016-04-27T20:08:32.911Z,0
2016-04-27T20:09:32.929Z,0
2016-04-27T20:10:32.884Z,0
2016-04-27T20:11:32.997Z,0
2016-04-27T20:12:32.984Z,0
2016-04-27T20:13:33.017Z,0
2016-04-27T20:14:33.067Z,0
2016-04-27T20:15:33.055Z,0
2016-04-27T20:16:33.088Z,0
2016-04-27T20:17:33.122Z,0
2016-04-27T20:18:33.141Z,0
2016-04-27T20:19:33.175Z,0
2016-04-27T20:20:33.208Z,0
2016-04-27T20:21:33.211Z,0
2016-04-27T20:22:33.361Z,0
2016-04-27T20:23:33.256Z,0
2016-04-27T20:24:33.258Z,0
2016-04-27T20:25:33.729Z,0
2016-04-27T20:26:33.296Z,0
2016-04-27T20:27:33.360Z,0
2016-04-27T20:28:33.379Z,0
2016-04-27T20:29:33.382Z,0
2016-04-27T20:30:33.399Z,0
2016-04-27T20:31:33.433Z,0
2016-04-27T20:32:33.468Z,0
2016-04-27T20:33:33.485Z,0
2016-04-27T20:34:33.504Z,0
2016-04-27T20:35:33.522Z,0
2016-04-27T20:36:33.526Z,0
2016-04-27T20:37:33.559Z,0
2016-04-27T20:38:33.593Z,0
2016-04-27T20:39:33.611Z,0
2016-04-27T20:40:33.817Z,0
2016-04-27T20:41:33.663Z,0
2016-04-27T20:42:33.698Z,0
2016-04-27T20:43:33.700Z,0
2016-04-27T20:44:33.750Z,0
2016-04-27T20:45:33.783Z,0
2016-04-27T20:46:33.770Z,0
2016-04-27T20:47:33.789Z,0
2016-04-27T20:48:33.823Z,0
2016-04-27T20:49:33.841Z,0
2016-04-27T20:50:33.875Z,0
2016-04-27T20:51:33.877Z,0
2016-04-27T20:52:33.911Z,0
2016-04-27T20:53:33.930Z,0
2016-04-27T20:54:33.984Z,0
2016-04-27T20:55:34.686Z,0
2016-04-27T20:56:34.123Z,0
2016-04-27T20:57:34.154Z,0
2016-04-27T20:58:34.247Z,0
2016-04-27T20:59:34.291Z,0
2016-04-27T21:00:34.325Z,0
2016-04-27T21:01:34.375Z,0
2016-04-27T21:02:34.424Z,0
2016-04-27T21:03:34.443Z,0
2016-04-27T21:04:34.476Z,0
2016-04-27T21:05:34.516Z,0
2016-04-27T21:06:34.571Z,0
2016-04-27T21:07:34.580Z,0
2016-04-27T21:08:34.604Z,0
2016-04-27T21:09:34.644Z,0
2016-04-27T21:10:37.226Z,0
2016-04-27T21:11:34.669Z,0
2016-04-27T21:12:34.705Z,0
2016-04-27T21:13:34.711Z,0
2016-04-27T21:14:34.762Z,0
2016-04-27T21:15:34.766Z,0
2016-04-27T21:16:34.784Z,0
2016-04-27T21:17:34.976Z,0
2016-04-27T21:18:34.854Z,0
2016-04-27T21:19:34.873Z,0
2016-04-27T21:20:34.892Z,0
2016-04-27T21:21:34.911Z,0
2016-04-27T21:22:34.929Z,0
2016-04-27T21:23:34.962Z,0
2016-04-27T21:24:34.966Z,0
2016-04-27T21:25:39.728Z,0
2016-04-27T21:26:36.717Z,0
2016-04-27T21:27:35.926Z,0
2016-04-27T21:28:34.934Z,0
2016-04-27T21:29:35.723Z,0
2016-04-27T21:30:35.110Z,0
2016-04-27T21:31:35.145Z,0
2016-04-27T21:32:35.179Z,0
2016-04-27T21:33:35.181Z,0
2016-04-27T21:34:35.199Z,0
2016-04-27T21:35:35.249Z,0
2016-04-27T21:36:35.251Z,0
2016-04-27T21:37:35.269Z,0
2016-04-27T21:38:35.288Z,0
2016-04-27T21:39:35.322Z,0
2016-04-27T21:40:36.419Z,0
2016-04-27T21:41:35.375Z,0
2016-04-27T21:42:35.377Z,0
2016-04-27T21:43:35.411Z,0
2016-04-27T21:44:35.413Z,0
2016-04-27T21:45:35.464Z,0
2016-04-27T21:46:35.466Z,0
2016-04-27T21:47:35.500Z,0
2016-04-27T21:48:35.533Z,0
2016-04-27T21:49:35.536Z,0
2016-04-27T21:50:35.571Z,0
2016-04-27T21:51:35.605Z,0
2016-04-27T21:52:35.607Z,0
2016-04-27T21:53:35.620Z,0
2016-04-27T21:54:35.654Z,0
2016-04-27T21:55:35.719Z,0
2016-04-27T21:56:35.690Z,0
2016-04-27T21:57:35.739Z,0
2016-04-27T21:58:35.742Z,0
2016-04-27T21:59:35.761Z,0
2016-04-27T22:00:35.795Z,0
2016-04-27T22:01:35.813Z,0
2016-04-27T22:02:35.847Z,0
2016-04-27T22:03:35.850Z,0
2016-04-27T22:04:35.900Z,0
2016-04-27T22:05:35.886Z,0
2016-04-27T22:06:35.936Z,0
2016-04-27T22:07:35.955Z,0
2016-04-27T22:08:35.973Z,0
2016-04-27T22:09:35.991Z,0
2016-04-27T22:10:38.227Z,0
2016-04-27T22:11:36.043Z,0
2016-04-27T22:12:36.046Z,0
2016-04-27T22:13:36.096Z,0
2016-04-27T22:14:36.082Z,0
2016-04-27T22:15:36.132Z,0
2016-04-27T22:16:36.149Z,0
2016-04-27T22:17:36.169Z,0
2016-04-27T22:18:36.187Z,0
2016-04-27T22:19:36.221Z,0
2016-04-27T22:20:36.239Z,0
2016-04-27T22:21:36.257Z,0
2016-04-27T22:22:36.259Z,0
2016-04-27T22:23:36.279Z,0
2016-04-27T22:24:36.328Z,0
2016-04-27T22:25:36.706Z,0
2016-04-27T22:26:36.364Z,0
2016-04-27T22:27:36.399Z,0
2016-04-27T22:28:36.432Z,0
2016-04-27T22:29:36.450Z,0
2016-04-27T22:30:36.453Z,0
2016-04-27T22:31:36.487Z,0
2016-04-27T22:32:36.537Z,0
2016-04-27T22:33:36.524Z,0
2016-04-27T22:34:36.542Z,0
2016-04-27T22:35:36.575Z,0
2016-04-27T22:36:36.595Z,0
2016-04-27T22:37:36.629Z,0
2016-04-27T22:38:36.631Z,0
2016-04-27T22:39:36.680Z,0
2016-04-27T22:40:36.747Z,0
2016-04-27T22:41:36.716Z,0
2016-04-27T22:42:36.752Z,0
2016-04-27T22:43:36.738Z,0
2016-04-27T22:44:36.788Z,0
2016-04-27T22:45:36.774Z,0
2016-04-27T22:46:36.825Z,0
2016-04-27T22:47:36.827Z,0
2016-04-27T22:48:36.877Z,0
2016-04-27T22:49:36.910Z,0
2016-04-27T22:50:36.946Z,0
2016-04-27T22:51:36.932Z,0
2016-04-27T22:52:36.982Z,0
2016-04-27T22:53:36.984Z,0
2016-04-27T22:54:36.986Z,0
2016-04-27T22:55:38.802Z,0
2016-04-27T22:56:37.054Z,0
2016-04-27T22:57:37.057Z,0
2016-04-27T22:58:37.091Z,0
2016-04-27T22:59:37.109Z,0
2016-04-27T23:00:37.128Z,0
2016-04-27T23:01:37.146Z,0
2016-04-27T23:02:37.195Z,0
2016-04-27T23:03:37.198Z,0
2016-04-27T23:04:37.247Z,0
2016-04-27T23:05:37.236Z,0
2016-04-27T23:06:37.269Z,0
2016-04-27T23:07:37.287Z,0
2016-04-27T23:08:37.305Z,0
2016-04-27T23:09:37.340Z,0
2016-04-27T23:10:37.436Z,0
2016-04-27T23:11:37.377Z,0
2016-04-27T23:12:37.394Z,0
2016-04-27T23:13:37.444Z,0
2016-04-27T23:14:37.447Z,0
2016-04-27T23:15:37.481Z,0
2016-04-27T23:16:37.499Z,0
2016-04-27T23:17:37.517Z,0
2016-04-27T23:18:37.567Z,0
2016-04-27T23:19:37.569Z,0
2016-04-27T23:20:37.588Z,0
2016-04-27T23:21:37.590Z,0
2016-04-27T23:22:37.485Z,0
2016-04-27T23:23:37.643Z,0
2016-04-27T23:24:37.646Z,0
2016-04-27T23:25:37.539Z,0
2016-04-27T23:26:37.729Z,0
2016-04-27T23:27:37.731Z,0
2016-04-27T23:28:37.766Z,0
2016-04-27T23:29:37.800Z,0
2016-04-27T23:30:37.790Z,0
2016-04-27T23:31:37.841Z,0
2016-04-27T23:32:37.844Z,0
2016-04-27T23:33:37.893Z,0
2016-04-27T23:34:37.879Z,0
2016-04-27T23:35:37.960Z,0
2016-04-27T23:36:37.946Z,0
2016-04-27T23:37:37.982Z,0
2016-04-27T23:38:37.968Z,0
2016-04-27T23:39:38.018Z,0
2016-04-27T23:40:37.879Z,0